Time;durP1;ratioP1;P1;durP2;ratioP2;P2;SDS_P1;SDS_P2;PMS_P1;PMS_P2;Temp;Humidity;BMP_temperature;BMP_pressure;BME280_temperature;BME280_humidity;BME280_pressure;Samples;Min_cycle;Max_cycle;Signal;HPM_P1;HPM_P2
2021/12/25 00:00:10;;;;;;;10.35;3.25;;;0.60;99.90;;;;;;5094159;28;20044;-71
2021/12/25 00:02:36;;;;;;;9.40;3.43;;;0.60;99.90;;;;;;5094244;28;20123;-71
2021/12/25 00:05:03;;;;;;;9.35;3.38;;;0.50;99.90;;;;;;5077021;28;20118;-71
2021/12/25 00:07:29;;;;;;;9.20;3.25;;;0.50;99.90;;;;;;5093641;28;20091;-71
2021/12/25 00:09:54;;;;;;;11.93;3.45;;;0.50;99.90;;;;;;5094240;28;20063;-70
2021/12/25 00:12:20;;;;;;;11.68;3.28;;;0.40;99.90;;;;;;5093924;28;20386;-71
2021/12/25 00:14:45;;;;;;;8.57;2.90;;;0.40;99.90;;;;;;5094120;28;20436;-70
2021/12/25 00:17:11;;;;;;;9.80;2.70;;;0.40;99.90;;;;;;5093702;28;20047;-70
2021/12/25 00:19:37;;;;;;;6.28;2.63;;;0.40;99.90;;;;;;5075706;28;20122;-72
2021/12/25 00:22:02;;;;;;;8.57;2.70;;;0.40;99.90;;;;;;5092434;28;20126;-71
2021/12/25 00:24:28;;;;;;;11.50;2.53;;;0.30;99.90;;;;;;5092513;28;20078;-73
2021/12/25 00:32:38;;;;;;;7.78;2.38;;;0.20;99.90;;;;;;5093434;28;20070;-74
2021/12/25 00:35:00;;;;;;;10.85;2.80;;;0.20;99.90;;;;;;5093020;28;20505;-71
2021/12/25 00:37:26;;;;;;;8.43;2.40;;;0.20;99.90;;;;;;5093461;28;20036;-71
2021/12/25 00:39:54;;;;;;;3.70;2.03;;;0.20;99.90;;;;;;5093724;28;20040;-71
2021/12/25 00:42:20;;;;;;;6.53;2.30;;;0.10;99.90;;;;;;5093451;28;20052;-74
2021/12/25 00:44:45;;;;;;;9.52;2.50;;;0.20;99.90;;;;;;5075707;28;20386;-71
2021/12/25 00:47:11;;;;;;;6.15;1.95;;;0.20;99.90;;;;;;5126963;27;20080;-71
2021/12/25 00:49:37;;;;;;;6.45;1.75;;;0.10;99.90;;;;;;5127431;27;20043;-71
2021/12/25 00:52:03;;;;;;;6.65;2.00;;;0.10;99.90;;;;;;5126704;27;20087;-71
2021/12/25 00:54:28;;;;;;;5.05;1.85;;;0.00;99.90;;;;;;5093224;28;20051;-72
2021/12/25 00:56:54;;;;;;;6.88;2.20;;;0.00;99.90;;;;;;5127267;27;20040;-70
2021/12/25 00:59:20;;;;;;;5.97;1.42;;;0.00;99.90;;;;;;5126681;27;20048;-73
2021/12/25 01:01:45;;;;;;;5.38;1.83;;;0.00;99.90;;;;;;5092526;28;20048;-75
2021/12/25 01:04:11;;;;;;;5.45;1.88;;;-0.10;99.90;;;;;;5092947;28;20044;-71
2021/12/25 01:06:37;;;;;;;6.80;1.60;;;-0.10;99.90;;;;;;5093085;28;20036;-71
2021/12/25 01:09:03;;;;;;;6.10;1.80;;;-0.20;99.90;;;;;;5092914;28;20122;-71
2021/12/25 01:11:31;;;;;;;7.22;2.00;;;-0.20;99.90;;;;;;5093050;28;20052;-73
2021/12/25 01:14:10;;;;;;;3.53;1.58;;;-0.20;99.90;;;;;;5092635;28;20051;-71
2021/12/25 01:17:11;;;;;;;6.60;1.52;;;-0.30;99.90;;;;;;5074962;28;20466;-71
2021/12/25 01:30:20;;;;;;;6.28;1.65;;;-0.40;99.90;;;;;;5092521;28;20588;-73
2021/12/25 01:48:26;;;;;;;4.72;1.45;;;-0.60;99.90;;;;;;5092527;28;20087;-71
2021/12/25 01:50:54;;;;;;;4.72;1.48;;;-0.60;99.90;;;;;;5126422;28;20044;-69
2021/12/25 01:53:20;;;;;;;6.00;1.52;;;-0.60;99.90;;;;;;5092380;28;20047;-71
2021/12/25 01:55:46;;;;;;;7.85;1.65;;;-0.60;99.90;;;;;;5126067;27;20047;-71
2021/12/25 01:58:12;;;;;;;7.30;1.63;;;-0.70;99.90;;;;;;5092421;28;20032;-72
2021/12/25 02:00:42;;;;;;;7.60;1.30;;;-0.70;99.90;;;;;;5126515;28;20039;-71
2021/12/25 02:03:11;;;;;;;5.07;1.60;;;-0.70;99.90;;;;;;5091954;28;20042;-71
2021/12/25 02:05:37;;;;;;;5.70;1.30;;;-0.80;99.90;;;;;;5079193;28;20086;-72
2021/12/25 02:08:04;;;;;;;5.20;1.10;;;-0.80;99.90;;;;;;5096204;28;20066;-71
2021/12/25 02:10:29;;;;;;;11.77;1.95;;;-0.80;99.90;;;;;;5095979;28;20035;-72
2021/12/25 02:12:55;;;;;;;4.43;1.35;;;-0.90;99.90;;;;;;5096255;28;20474;-72
2021/12/25 02:15:24;;;;;;;6.15;1.50;;;-0.90;99.90;;;;;;5095467;28;20047;-71
2021/12/25 02:18:07;;;;;;;5.13;1.40;;;-0.90;99.90;;;;;;5096424;28;20043;-72
2021/12/25 02:20:42;;;;;;;5.88;1.33;;;-1.00;99.90;;;;;;5095316;28;20136;-72
2021/12/25 02:23:19;;;;;;;3.75;1.23;;;-1.00;99.90;;;;;;5095298;28;20048;-71
2021/12/25 02:25:46;;;;;;;5.63;1.38;;;-1.00;99.90;;;;;;5096262;28;20062;-72
2021/12/25 02:28:14;;;;;;;6.15;1.10;;;-1.00;99.90;;;;;;5096304;28;20050;-74
2021/12/25 02:30:41;;;;;;;5.05;1.30;;;-1.10;99.90;;;;;;5079171;28;20052;-74
2021/12/25 02:33:07;;;;;;;3.88;1.33;;;-1.10;99.90;;;;;;5095774;28;20075;-72
2021/12/25 02:35:33;;;;;;;4.53;1.40;;;-1.10;99.90;;;;;;5095224;28;20158;-72
2021/12/25 02:37:59;;;;;;;6.25;1.20;;;-1.20;99.90;;;;;;5129516;27;20043;-71
2021/12/25 02:40:26;;;;;;;3.33;1.05;;;-1.20;99.90;;;;;;5095460;28;20127;-71
2021/12/25 02:42:52;;;;;;;3.00;1.13;;;-1.20;99.90;;;;;;5095335;28;20551;-71
2021/12/25 02:45:21;;;;;;;2.58;1.20;;;-1.30;99.90;;;;;;5094959;28;20071;-70
2021/12/25 02:47:50;;;;;;;4.95;1.10;;;-1.30;99.90;;;;;;5078123;28;20052;-73
2021/12/25 02:50:28;;;;;;;5.05;1.00;;;-1.30;99.90;;;;;;5078122;28;20032;-72
2021/12/25 02:52:56;;;;;;;4.63;0.90;;;-1.30;99.90;;;;;;5095336;28;20047;-72
2021/12/25 02:55:22;;;;;;;6.20;1.10;;;-1.30;99.90;;;;;;5095205;28;20075;-72
2021/12/25 02:57:52;;;;;;;3.78;1.10;;;-1.40;99.90;;;;;;5094952;28;20402;-72
2021/12/25 03:00:21;;;;;;;3.78;0.93;;;-1.40;99.90;;;;;;5095100;28;20043;-72
2021/12/25 03:02:47;;;;;;;3.03;1.20;;;-1.50;99.90;;;;;;5094705;28;20052;-71
2021/12/25 03:05:13;;;;;;;10.77;1.00;;;-1.50;99.90;;;;;;5095404;28;20039;-72
2021/12/25 03:07:39;;;;;;;3.00;1.00;;;-1.50;99.90;;;;;;5094455;28;20044;-75
2021/12/25 03:10:06;;;;;;;4.38;1.00;;;-1.50;99.90;;;;;;5128531;27;20039;-72
2021/12/25 03:12:38;;;;;;;5.05;0.90;;;-1.60;99.90;;;;;;5077842;28;20036;-72
2021/12/25 03:15:14;;;;;;;5.00;1.00;;;-1.60;99.90;;;;;;5093801;28;20079;-72
2021/12/25 03:17:39;;;;;;;4.32;1.17;;;-1.70;99.90;;;;;;5094827;28;20122;-72
2021/12/25 03:20:08;;;;;;;8.73;1.38;;;-1.70;99.90;;;;;;5094860;28;20130;-72
2021/12/25 03:22:34;;;;;;;1.85;0.90;;;-1.70;99.90;;;;;;5094357;28;20437;-72
2021/12/25 03:25:00;;;;;;;5.15;0.88;;;-1.80;99.90;;;;;;5077546;28;20046;-72
2021/12/25 03:27:25;;;;;;;3.83;0.85;;;-1.80;99.90;;;;;;5093970;28;20035;-73
2021/12/25 03:29:51;;;;;;;3.38;0.90;;;-1.90;99.90;;;;;;5093421;28;20047;-72
2021/12/25 03:32:17;;;;;;;4.22;1.02;;;-1.90;99.90;;;;;;5127944;27;20032;-75
2021/12/25 03:34:42;;;;;;;2.42;0.90;;;-1.90;99.90;;;;;;5094512;28;20123;-72
2021/12/25 03:37:08;;;;;;;5.10;0.95;;;-2.00;99.90;;;;;;5094462;28;20122;-72
2021/12/25 03:39:34;;;;;;;4.88;1.20;;;-2.00;99.90;;;;;;5094341;28;20096;-72
2021/12/25 03:42:00;;;;;;;4.72;0.82;;;-2.00;99.90;;;;;;5053084;28;20383;-72
2021/12/25 03:44:28;;;;;;;6.63;1.10;;;-2.00;99.90;;;;;;5069230;28;20135;-72
2021/12/25 03:47:00;;;;;;;1.85;0.80;;;-2.10;99.90;;;;;;5034790;28;20049;-74
2021/12/25 03:49:33;;;;;;;1.77;0.68;;;-2.10;99.90;;;;;;5036866;28;20084;-73
2021/12/25 03:57:41;;;;;;;2.00;0.70;;;-2.20;99.90;;;;;;5036444;28;20060;-72
2021/12/25 04:00:08;;;;;;;3.08;0.80;;;-2.20;99.90;;;;;;5036277;28;20585;-72
2021/12/25 04:02:37;;;;;;;3.42;0.70;;;-2.20;99.90;;;;;;5036158;28;20053;-71
2021/12/25 04:05:06;;;;;;;3.05;0.70;;;-2.30;99.90;;;;;;5052411;28;20415;-73
2021/12/25 04:10:02;;;;;;;1.58;0.50;;;-2.40;99.90;;;;;;5036463;28;20052;-72
2021/12/25 04:12:27;;;;;;;2.13;0.70;;;-2.40;99.90;;;;;;5047972;28;20066;-72
2021/12/25 04:14:53;;;;;;;2.03;0.80;;;-2.40;99.90;;;;;;5082277;28;20394;-73
2021/12/25 04:17:19;;;;;;;2.15;0.60;;;-2.40;99.90;;;;;;5098299;28;20044;-76
2021/12/25 04:19:44;;;;;;;2.50;0.80;;;-2.50;99.90;;;;;;5092414;28;20421;-72
2021/12/25 04:22:17;;;;;;;2.13;0.68;;;-2.50;99.90;;;;;;5092660;28;20097;-74
2021/12/25 04:24:45;;;;;;;0.93;0.47;;;-2.50;99.90;;;;;;5093212;28;20470;-72
2021/12/25 04:27:14;;;;;;;4.75;0.88;;;-2.50;99.90;;;;;;5093530;28;20048;-72
2021/12/25 04:29:56;;;;;;;2.00;0.77;;;-2.60;99.90;;;;;;5093630;28;20123;-72
2021/12/25 04:49:44;;;;;;;3.65;0.80;;;-2.80;99.90;;;;;;5092798;28;20051;-73
2021/12/25 05:03:57;;;;;;;1.52;1.00;;;-2.80;99.90;;;;;;5059665;28;20039;-73
2021/12/25 05:05:55;;;;;;;3.50;0.70;;;-2.90;99.90;;;;;;5081950;28;20044;-74
2021/12/25 05:08:21;;;;;;;1.30;0.60;;;-2.90;99.90;;;;;;5093125;28;20390;-73
2021/12/25 05:10:47;;;;;;;1.60;0.70;;;-2.90;99.90;;;;;;5110258;28;20040;-73
2021/12/25 05:13:12;;;;;;;3.60;1.02;;;-2.90;99.90;;;;;;5109646;28;20081;-73
2021/12/25 05:15:38;;;;;;;1.27;0.68;;;-2.90;99.90;;;;;;5109380;28;20386;-73
2021/12/25 05:18:05;;;;;;;0.95;0.65;;;-2.90;99.90;;;;;;5108636;28;20470;-72
2021/12/25 05:20:31;;;;;;;3.33;0.90;;;-2.90;99.90;;;;;;5092145;28;20051;-71
2021/12/25 05:22:57;;;;;;;3.28;0.90;;;-2.90;99.90;;;;;;5092907;28;20090;-73
2021/12/25 05:25:23;;;;;;;3.33;0.93;;;-2.90;99.90;;;;;;5092616;28;20040;-73
2021/12/25 05:27:49;;;;;;;2.55;0.90;;;-3.00;99.90;;;;;;5092683;28;20039;-73
2021/12/25 05:30:16;;;;;;;1.88;0.90;;;-3.00;99.90;;;;;;5092848;28;20044;-73
2021/12/25 05:32:41;;;;;;;3.90;0.90;;;-3.00;99.90;;;;;;5092334;28;20055;-73
2021/12/25 05:35:07;;;;;;;3.90;0.68;;;-3.00;99.90;;;;;;5092321;28;20054;-74
2021/12/25 05:37:33;;;;;;;2.15;0.90;;;-3.00;99.90;;;;;;5092617;28;20075;-72
2021/12/25 05:40:01;;;;;;;2.88;0.90;;;-3.00;99.90;;;;;;5092315;28;20119;-72
2021/12/25 05:42:27;;;;;;;3.78;0.80;;;-3.00;99.90;;;;;;5092823;28;20118;-73
2021/12/25 05:44:52;;;;;;;2.00;0.80;;;-3.10;99.90;;;;;;5092401;28;20132;-72
2021/12/25 05:47:18;;;;;;;2.25;0.73;;;-3.10;99.90;;;;;;5091807;28;20044;-73
2021/12/25 05:49:44;;;;;;;1.98;0.80;;;-3.10;99.90;;;;;;5127285;28;20050;-73
2021/12/25 05:52:09;;;;;;;1.70;0.88;;;-3.10;99.90;;;;;;5092574;28;20036;-72
2021/12/25 05:54:35;;;;;;;5.00;0.95;;;-3.10;99.90;;;;;;5076012;28;20051;-73
2021/12/25 05:57:01;;;;;;;1.45;0.90;;;-3.10;99.90;;;;;;5109560;28;20044;-72
2021/12/25 05:59:27;;;;;;;1.17;0.60;;;-3.20;99.90;;;;;;5092178;28;20475;-73
2021/12/25 06:01:52;;;;;;;3.17;0.90;;;-3.20;99.90;;;;;;5126120;28;20040;-74
2021/12/25 06:04:18;;;;;;;1.67;0.80;;;-3.20;99.90;;;;;;5126233;28;20075;-74
2021/12/25 06:06:44;;;;;;;1.83;0.70;;;-3.20;99.90;;;;;;5125904;28;20040;-72
2021/12/25 06:09:09;;;;;;;1.40;0.70;;;-3.20;99.90;;;;;;5075672;28;20036;-72
2021/12/25 06:11:39;;;;;;;1.55;0.60;;;-3.20;99.90;;;;;;5075131;28;20434;-72
2021/12/25 06:14:10;;;;;;;3.65;1.10;;;-3.20;99.90;;;;;;5075191;28;20036;-73
2021/12/25 06:16:37;;;;;;;2.28;0.82;;;-3.30;99.90;;;;;;5091396;28;20476;-73
2021/12/25 06:19:04;;;;;;;2.45;0.70;;;-3.30;99.90;;;;;;5075534;28;20074;-71
2021/12/25 06:21:30;;;;;;;1.40;0.63;;;-3.30;99.90;;;;;;5091927;28;20056;-72
2021/12/25 06:23:56;;;;;;;1.75;0.50;;;-3.30;99.90;;;;;;5092257;28;20044;-72
2021/12/25 06:26:22;;;;;;;3.65;0.70;;;-3.30;99.90;;;;;;5092101;28;20055;-72
2021/12/25 06:28:47;;;;;;;3.42;0.57;;;-3.40;99.90;;;;;;5075124;28;20131;-73
2021/12/25 06:31:13;;;;;;;2.58;0.60;;;-3.40;99.90;;;;;;5074921;28;20126;-73
2021/12/25 06:33:39;;;;;;;2.40;0.63;;;-3.40;99.90;;;;;;5092329;28;20131;-74
2021/12/25 06:36:05;;;;;;;2.85;0.68;;;-3.40;99.90;;;;;;5090980;28;20072;-72
2021/12/25 06:38:30;;;;;;;2.35;0.60;;;-3.30;99.90;;;;;;5055216;28;20056;-71
2021/12/25 06:40:56;;;;;;;1.70;0.45;;;-3.40;99.90;;;;;;5088784;28;20072;-74
2021/12/25 06:43:22;;;;;;;1.15;0.60;;;-3.30;99.90;;;;;;5071805;28;20458;-71
2021/12/25 06:45:47;;;;;;;3.63;0.70;;;-3.40;99.90;;;;;;5071301;28;20360;-73
2021/12/25 06:48:13;;;;;;;2.10;0.73;;;-3.40;99.90;;;;;;5105401;28;20044;-71
2021/12/25 06:50:39;;;;;;;0.80;0.40;;;-3.40;99.90;;;;;;5105891;28;20131;-70
2021/12/25 06:53:04;;;;;;;2.58;0.80;;;-3.40;99.90;;;;;;5109058;28;20048;-72
2021/12/25 06:55:30;;;;;;;1.20;0.40;;;-3.50;99.90;;;;;;5109035;28;20098;-71
2021/12/25 06:57:57;;;;;;;2.97;0.68;;;-3.50;99.90;;;;;;5092006;28;20040;-71
2021/12/25 07:00:24;;;;;;;1.08;0.40;;;-3.50;99.90;;;;;;5108714;28;20044;-74
2021/12/25 07:02:49;;;;;;;1.42;0.50;;;-3.50;99.90;;;;;;5109653;28;20082;-74
2021/12/25 07:05:15;;;;;;;1.65;0.40;;;-3.50;99.90;;;;;;5058026;28;20037;-74
2021/12/25 07:07:43;;;;;;;3.40;0.50;;;-3.50;99.90;;;;;;5092470;28;20046;-72
2021/12/25 07:10:09;;;;;;;1.90;0.52;;;-3.50;99.90;;;;;;5094702;28;20490;-72
2021/12/25 07:12:37;;;;;;;1.65;0.50;;;-3.60;99.90;;;;;;5095086;28;20039;-75
2021/12/25 07:15:07;;;;;;;1.60;0.55;;;-3.60;99.90;;;;;;5094820;28;20044;-72
2021/12/25 07:17:33;;;;;;;;;;;-3.60;99.90;;;;;;5095840;28;20042;-72
2021/12/25 07:19:58;;;;;;;5.03;0.68;;;-3.60;99.90;;;;;;5077928;28;20262;-74
2021/12/25 07:22:24;;;;;;;0.98;0.57;;;-3.60;99.90;;;;;;5095004;28;20047;-72
2021/12/25 07:24:50;;;;;;;3.33;0.75;;;-3.60;99.90;;;;;;5094685;28;20097;-73
2021/12/25 07:27:15;;;;;;;3.53;0.75;;;-3.60;99.90;;;;;;5094467;28;20040;-73
2021/12/25 07:29:41;;;;;;;1.40;0.50;;;-3.60;99.90;;;;;;5094397;28;20488;-75
2021/12/25 07:32:07;;;;;;;2.65;0.50;;;-3.60;99.90;;;;;;5078052;28;20097;-72
2021/12/25 07:34:33;;;;;;;4.47;0.80;;;-3.60;99.90;;;;;;5095301;28;20040;-72
2021/12/25 07:37:00;;;;;;;1.52;0.40;;;-3.60;99.90;;;;;;5094683;28;20428;-72
2021/12/25 07:39:26;;;;;;;1.60;0.40;;;-3.60;99.90;;;;;;5111646;28;20069;-72
2021/12/25 07:41:52;;;;;;;2.33;0.63;;;-3.60;99.90;;;;;;5094478;28;20497;-72
2021/12/25 07:44:17;;;;;;;2.08;0.60;;;-3.60;99.90;;;;;;5128341;27;20062;-73
2021/12/25 07:46:45;;;;;;;1.83;0.57;;;-3.60;99.90;;;;;;5128724;27;20474;-72
2021/12/25 07:49:20;;;;;;;1.45;0.70;;;-3.60;99.90;;;;;;5111553;28;20055;-75
2021/12/25 07:51:47;;;;;;;1.58;0.40;;;-3.60;99.90;;;;;;5077630;28;20036;-70
2021/12/25 07:54:13;;;;;;;1.52;0.35;;;-3.60;99.90;;;;;;5111311;28;20169;-73
2021/12/25 07:56:39;;;;;;;3.53;0.65;;;-3.60;99.90;;;;;;5094067;28;20402;-74
2021/12/25 07:59:06;;;;;;;2.47;0.50;;;-3.70;99.90;;;;;;5110933;28;20032;-72
2021/12/25 08:01:34;;;;;;;0.90;0.35;;;-3.70;99.90;;;;;;5111027;28;20035;-72
2021/12/25 08:04:01;;;;;;;2.13;0.40;;;-3.60;99.90;;;;;;5076946;28;20048;-72
2021/12/25 08:06:27;;;;;;;1.67;0.70;;;-3.60;99.90;;;;;;5093944;28;20644;-71
2021/12/25 08:08:55;;;;;;;2.25;0.60;;;-3.60;99.90;;;;;;5094021;28;20500;-72
2021/12/25 08:11:21;;;;;;;1.42;0.50;;;-3.60;99.90;;;;;;5076706;28;20048;-72
2021/12/25 08:13:47;;;;;;;2.25;0.60;;;-3.60;99.90;;;;;;5093979;28;20067;-72
2021/12/25 08:16:13;;;;;;;1.08;0.60;;;-3.60;99.90;;;;;;5077170;28;20078;-73
2021/12/25 08:18:38;;;;;;;1.98;0.52;;;-3.60;99.90;;;;;;5076918;28;20186;-72
2021/12/25 08:21:05;;;;;;;0.70;0.40;;;-3.60;99.90;;;;;;5093986;28;20047;-72
2021/12/25 08:23:32;;;;;;;3.25;0.60;;;-3.60;99.90;;;;;;5093366;28;20119;-72
2021/12/25 08:26:00;;;;;;;1.25;0.60;;;-3.60;99.90;;;;;;5092955;28;20386;-72
2021/12/25 08:28:25;;;;;;;3.10;0.60;;;-3.60;99.90;;;;;;5094366;28;20043;-70
2021/12/25 08:30:51;;;;;;;3.08;0.80;;;-3.60;99.90;;;;;;5127925;27;20048;-72
2021/12/25 08:33:17;;;;;;;3.15;0.73;;;-3.60;99.90;;;;;;5127160;27;20059;-70
2021/12/25 08:35:42;;;;;;;2.95;0.70;;;-3.60;99.90;;;;;;5127551;27;20101;-72
2021/12/25 08:38:11;;;;;;;2.47;0.90;;;-3.60;99.90;;;;;;5110476;28;20364;-74
2021/12/25 08:40:38;;;;;;;2.75;0.70;;;-3.60;99.90;;;;;;5092664;28;20428;-72
2021/12/25 08:43:04;;;;;;;4.13;0.77;;;-3.60;99.90;;;;;;5076407;28;20531;-72
2021/12/25 08:46:13;;;;;;;2.90;0.75;;;-3.60;99.90;;;;;;5076422;28;20119;-72
2021/12/25 08:48:24;;;;;;;1.85;0.45;;;-3.60;99.90;;;;;;5088878;28;20058;-71
2021/12/25 08:50:54;;;;;;;2.45;0.57;;;-3.60;99.90;;;;;;5076319;28;20086;-72
2021/12/25 08:53:22;;;;;;;3.67;0.82;;;-3.60;99.90;;;;;;5093342;28;20093;-72
2021/12/25 08:55:49;;;;;;;3.45;0.80;;;-3.60;99.90;;;;;;5092868;28;20044;-71
2021/12/25 08:58:16;;;;;;;4.40;0.68;;;-3.60;99.90;;;;;;5092730;28;20040;-73
2021/12/25 09:00:42;;;;;;;2.08;0.60;;;-3.60;99.90;;;;;;5110031;28;20144;-72
2021/12/25 09:03:09;;;;;;;4.03;0.80;;;-3.60;99.90;;;;;;5092984;28;20355;-71
2021/12/25 09:05:35;;;;;;;3.80;0.82;;;-3.50;99.90;;;;;;5109491;28;20036;-71
2021/12/25 09:08:02;;;;;;;3.25;0.90;;;-3.50;99.90;;;;;;5092309;28;20040;-72
2021/12/25 09:10:28;;;;;;;3.92;0.80;;;-3.50;99.90;;;;;;5109929;28;20036;-73
2021/12/25 09:12:55;;;;;;;1.67;0.70;;;-3.50;99.90;;;;;;5092188;28;20555;-71
2021/12/25 09:15:21;;;;;;;3.80;0.77;;;-3.50;99.90;;;;;;5092790;28;20127;-71
2021/12/25 09:17:47;;;;;;;2.08;0.75;;;-3.50;99.90;;;;;;5075973;28;20437;-71
2021/12/25 09:20:15;;;;;;;3.03;0.60;;;-3.40;99.90;;;;;;5092530;28;20052;-71
2021/12/25 09:22:41;;;;;;;2.45;0.70;;;-3.40;99.90;;;;;;5092749;28;20491;-75
2021/12/25 09:25:07;;;;;;;1.30;0.80;;;-3.40;99.90;;;;;;5092319;28;20109;-70
2021/12/25 09:27:33;;;;;;;2.88;0.90;;;-3.40;99.90;;;;;;5126678;27;20036;-71
2021/12/25 09:29:59;;;;;;;4.20;0.88;;;-3.30;99.90;;;;;;5126549;27;20044;-70
2021/12/25 09:32:25;;;;;;;4.57;0.90;;;-3.30;99.90;;;;;;5126525;27;20035;-71
2021/12/25 09:34:51;;;;;;;3.20;0.60;;;-3.30;99.90;;;;;;5092325;28;20043;-70
2021/12/25 09:37:18;;;;;;;2.53;0.70;;;-3.20;99.90;;;;;;5109907;28;20036;-72
2021/12/25 09:39:44;;;;;;;5.68;0.70;;;-3.20;99.90;;;;;;5092562;28;20145;-69
2021/12/25 09:42:10;;;;;;;4.70;0.95;;;-3.20;99.90;;;;;;5092956;28;20123;-70
2021/12/25 09:44:36;;;;;;;3.55;1.08;;;-3.10;99.90;;;;;;5109623;28;20497;-70
2021/12/25 09:47:02;;;;;;;2.28;0.80;;;-3.00;99.90;;;;;;5092017;28;20051;-73
2021/12/25 09:49:28;;;;;;;4.15;0.80;;;-2.90;99.90;;;;;;5092124;28;20042;-69
2021/12/25 09:51:54;;;;;;;2.03;0.88;;;-2.80;99.90;;;;;;5093127;28;20119;-73
2021/12/25 09:54:20;;;;;;;4.75;1.02;;;-2.80;99.90;;;;;;5109217;28;20040;-74
2021/12/25 09:56:48;;;;;;;2.38;1.05;;;-2.80;99.90;;;;;;5092205;28;20039;-70
2021/12/25 09:59:15;;;;;;;1.83;0.80;;;-2.80;99.90;;;;;;5074583;28;20076;-70
2021/12/25 10:01:50;;;;;;;1.48;0.63;;;-2.80;99.90;;;;;;5091927;28;20052;-70
2021/12/25 10:04:35;;;;;;;2.35;0.88;;;-2.70;99.90;;;;;;5092383;28;20044;-73
2021/12/25 10:07:22;;;;;;;2.45;0.90;;;-2.60;99.90;;;;;;5125839;28;20040;-71
2021/12/25 10:10:27;;;;;;;4.03;1.05;;;-2.60;99.90;;;;;;5092411;28;20043;-71
2021/12/25 10:12:53;;;;;;;2.17;0.60;;;-2.50;99.90;;;;;;5092014;28;20402;-70
2021/12/25 10:15:22;;;;;;;2.28;0.68;;;-2.50;99.90;;;;;;5092198;28;20044;-71
2021/12/25 10:17:54;;;;;;;2.88;0.70;;;-2.40;99.90;;;;;;5092085;28;20044;-71
2021/12/25 10:20:23;;;;;;;2.88;0.70;;;-2.30;99.90;;;;;;5074541;28;20100;-70
2021/12/25 10:23:02;;;;;;;5.65;1.00;;;-2.30;99.90;;;;;;5108989;28;20047;-70
2021/12/25 10:25:35;;;;;;;2.07;0.43;;;-2.20;99.90;;;;;;5094501;28;20044;-69
2021/12/25 10:28:06;;;;;;;3.00;0.47;;;-2.20;99.90;;;;;;5096058;28;20292;-69
2021/12/25 10:30:48;;;;;;;5.15;0.68;;;-2.10;99.90;;;;;;5096094;28;20048;-70
2021/12/25 10:33:23;;;;;;;3.60;0.65;;;-1.90;99.90;;;;;;5129579;27;20051;-72
2021/12/25 10:35:49;;;;;;;2.33;0.63;;;-1.70;99.90;;;;;;5130176;27;20051;-71
2021/12/25 10:38:17;;;;;;;1.60;0.55;;;-1.30;99.90;;;;;;5130345;27;20035;-72
2021/12/25 10:40:43;;;;;;;1.98;0.70;;;-0.70;99.90;;;;;;5095828;28;20044;-70
2021/12/25 10:43:20;;;;;;;3.00;0.70;;;-0.50;99.90;;;;;;5095354;28;20086;-70
2021/12/25 10:46:03;;;;;;;1.30;0.40;;;-0.40;99.90;;;;;;5094642;28;20040;-74
2021/12/25 10:48:30;;;;;;;2.30;0.65;;;-0.10;99.90;;;;;;5092244;28;20036;-71
2021/12/25 10:50:57;;;;;;;1.75;0.50;;;0.30;99.90;;;;;;5075354;28;20398;-71
2021/12/25 10:53:26;;;;;;;2.72;0.60;;;0.60;99.90;;;;;;5075044;28;20044;-71
2021/12/25 10:55:53;;;;;;;3.03;0.80;;;0.70;99.90;;;;;;5075115;28;20041;-71
2021/12/25 10:58:37;;;;;;;6.70;1.15;;;0.30;99.90;;;;;;5132138;27;20640;-71
2021/12/25 11:01:06;;;;;;;1.73;0.73;;;-0.10;99.90;;;;;;5093981;28;20073;-70
2021/12/25 11:03:39;;;;;;;2.25;0.60;;;-0.40;99.90;;;;;;5092708;28;20047;-71
2021/12/25 11:06:18;;;;;;;2.55;0.70;;;-0.60;99.90;;;;;;5088842;28;20388;-71
2021/12/25 11:08:46;;;;;;;4.25;0.65;;;-0.80;99.90;;;;;;5072269;28;20052;-72
2021/12/25 11:11:15;;;;;;;2.03;0.82;;;-0.80;99.90;;;;;;5081073;28;20123;-71
2021/12/25 11:13:57;;;;;;;2.37;0.70;;;-0.90;99.90;;;;;;5053023;28;20131;-71
2021/12/25 11:16:28;;;;;;;3.35;0.70;;;-0.90;99.90;;;;;;5061489;28;20040;-71
2021/12/25 11:19:16;;;;;;;1.63;0.75;;;-0.90;99.90;;;;;;5036144;28;20114;-72
2021/12/25 11:21:45;;;;;;;4.15;0.90;;;-0.60;99.90;;;;;;5071941;28;20038;-70
2021/12/25 11:24:23;;;;;;;2.88;0.65;;;-0.20;99.90;;;;;;5063784;28;20040;-70
2021/12/25 11:27:02;;;;;;;2.55;0.73;;;-0.10;99.90;;;;;;5061779;28;20068;-71
2021/12/25 11:29:30;;;;;;;1.55;0.63;;;-0.20;99.90;;;;;;5064135;28;20072;-71
2021/12/25 11:31:58;;;;;;;1.33;0.50;;;-0.20;99.90;;;;;;5095091;28;20386;-71
2021/12/25 11:34:25;;;;;;;2.92;0.70;;;-0.20;99.90;;;;;;5063283;28;20044;-70
2021/12/25 11:36:53;;;;;;;5.97;0.90;;;0.00;99.90;;;;;;5061419;28;20032;-70
2021/12/25 11:39:21;;;;;;;3.28;0.80;;;0.40;99.90;;;;;;5061063;28;20057;-71
2021/12/25 11:41:48;;;;;;;3.22;0.80;;;0.70;99.90;;;;;;5064617;28;20049;-74
2021/12/25 11:44:36;;;;;;;3.88;0.80;;;0.90;99.90;;;;;;5043598;28;20039;-72
2021/12/25 11:47:04;;;;;;;2.00;0.50;;;1.10;97.80;;;;;;5052714;28;20040;-71
2021/12/25 11:49:29;;;;;;;0.95;0.70;;;1.40;98.40;;;;;;5062711;28;20039;-71
2021/12/25 11:52:13;;;;;;;2.42;0.60;;;1.80;96.40;;;;;;5068736;28;20041;-71
2021/12/25 11:57:46;;;;;;;2.53;0.85;;;2.30;92.40;;;;;;5051699;28;20048;-72
2021/12/25 11:59:58;;;;;;;4.15;0.73;;;2.50;90.90;;;;;;5048669;28;20479;-71
2021/12/25 12:02:44;;;;;;;2.13;0.82;;;2.50;90.90;;;;;;5035547;28;20041;-70
2021/12/25 12:05:18;;;;;;;2.83;0.70;;;2.20;90.00;;;;;;5068102;28;20479;-70
2021/12/25 12:08:12;;;;;;;1.98;0.98;;;1.90;92.80;;;;;;5051917;28;20045;-73
2021/12/25 12:10:44;;;;;;;2.15;0.70;;;1.90;93.80;;;;;;5055279;28;20045;-71
2021/12/25 12:13:33;;;;;;;2.10;0.80;;;2.00;91.80;;;;;;5021949;28;20135;-71
2021/12/25 12:16:02;;;;;;;5.82;0.85;;;2.40;86.00;;;;;;5042359;28;20053;-70
2021/12/25 12:18:31;;;;;;;1.13;0.65;;;2.50;90.60;;;;;;5040764;28;20060;-71
2021/12/25 12:21:10;;;;;;;4.30;0.83;;;2.50;90.20;;;;;;5058326;28;20248;-71
2021/12/25 12:26:11;;;;;;;2.80;0.65;;;2.40;91.20;;;;;;5058233;28;20087;-71
2021/12/25 12:28:55;;;;;;;3.03;0.70;;;2.30;92.00;;;;;;5057332;28;20094;-74
2021/12/25 12:31:34;;;;;;;1.35;0.77;;;2.30;91.00;;;;;;5057149;28;20551;-72
2021/12/25 12:34:00;;;;;;;2.70;0.90;;;2.40;90.60;;;;;;5053186;28;20055;-71
2021/12/25 12:36:27;;;;;;;3.88;1.05;;;2.40;92.20;;;;;;5050134;28;20041;-73
2021/12/25 12:39:11;;;;;;;4.60;1.33;;;2.10;90.20;;;;;;5053643;28;20053;-71
2021/12/25 12:41:43;;;;;;;3.53;1.13;;;1.70;95.40;;;;;;5037121;28;20497;-71
2021/12/25 12:44:24;;;;;;;5.10;0.80;;;1.50;96.10;;;;;;5036976;28;20187;-71
2021/12/25 12:46:56;;;;;;;2.20;1.00;;;1.70;92.10;;;;;;5036884;28;20428;-73
2021/12/25 12:49:26;;;;;;;1.75;0.80;;;2.20;93.20;;;;;;5046864;28;20048;-70
2021/12/25 12:52:14;;;;;;;1.63;0.77;;;2.60;90.60;;;;;;5040198;28;20471;-73
2021/12/25 12:55:00;;;;;;;49.15;20.77;;;2.90;78.40;;;;;;5056520;28;20047;-70
2021/12/25 12:57:31;;;;;;;25.77;10.25;;;2.90;77.50;;;;;;5056409;28;20055;-71
2021/12/25 12:59:59;;;;;;;306.55;129.20;;;2.90;81.00;;;;;;5057087;28;20471;-72
2021/12/25 13:02:37;;;;;;;131.27;67.77;;;2.90;80.60;;;;;;5040550;28;20082;-71
2021/12/25 13:05:03;;;;;;;39.53;21.75;;;2.90;79.70;;;;;;5057456;28;20036;-73
2021/12/25 13:07:31;;;;;;;12.77;8.35;;;3.00;80.20;;;;;;5057553;28;20101;-70
2021/12/25 13:10:21;;;;;;;16.63;9.07;;;3.10;79.70;;;;;;5057569;28;20131;-73
2021/12/25 13:12:49;;;;;;;;;;;3.00;75.40;;;;;;5041111;28;20047;-72
2021/12/25 13:15:25;;;;;;;8.95;6.13;;;2.50;71.80;;;;;;5057339;28;19959;-72
2021/12/25 13:17:59;;;;;;;3.08;1.45;;;2.10;83.90;;;;;;5056969;28;20044;-72
2021/12/25 13:20:44;;;;;;;5.38;2.10;;;1.50;91.90;;;;;;5055860;28;20044;-71
2021/12/25 13:23:13;;;;;;;5.03;1.40;;;1.00;94.40;;;;;;5040412;28;20047;-71
2021/12/25 13:25:53;;;;;;;7.05;2.60;;;0.70;97.40;;;;;;5057109;28;20060;-75
2021/12/25 13:28:19;;;;;;;;;;;0.40;97.70;;;;;;5057218;28;20059;-71
2021/12/25 13:30:51;;;;;;;2.30;1.27;;;0.10;95.30;;;;;;5057688;28;20002;-71
2021/12/25 13:33:21;;;;;;;7.25;1.85;;;0.00;99.90;;;;;;5053161;28;20475;-71
2021/12/25 13:35:56;;;;;;;2.67;1.50;;;-0.20;99.90;;;;;;5053768;28;20032;-71
2021/12/25 13:38:22;;;;;;;5.05;2.35;;;-0.20;99.90;;;;;;5036448;28;20044;-71
2021/12/25 13:40:49;;;;;;;20.80;10.68;;;-0.30;99.90;;;;;;5036621;28;20044;-71
2021/12/25 13:43:16;;;;;;;18.80;11.35;;;-0.50;99.90;;;;;;5036989;28;20077;-75
2021/12/25 13:45:42;;;;;;;8.32;4.43;;;-0.50;99.90;;;;;;5036816;28;20041;-75
2021/12/25 13:48:08;;;;;;;5.20;2.70;;;-0.50;99.90;;;;;;5036913;28;20051;-70
2021/12/25 13:50:35;;;;;;;7.20;4.30;;;-0.60;99.90;;;;;;5056132;28;20040;-70
2021/12/25 13:53:01;;;;;;;29.90;21.35;;;-0.60;99.90;;;;;;5056232;28;20058;-70
2021/12/25 13:55:33;;;;;;;7.82;5.90;;;-0.70;99.90;;;;;;5056608;28;20490;-70
2021/12/25 13:58:02;;;;;;;3.55;1.35;;;-0.70;99.90;;;;;;5041125;28;20051;-71
2021/12/25 14:00:31;;;;;;;1.65;1.10;;;-0.70;99.90;;;;;;5036433;28;20483;-70
2021/12/25 14:03:00;;;;;;;3.50;2.97;;;-0.80;99.90;;;;;;5036596;28;20053;-70
2021/12/25 14:05:29;;;;;;;4.43;1.27;;;-0.90;99.90;;;;;;5036288;28;20045;-70
2021/12/25 14:07:54;;;;;;;4.38;2.63;;;-0.90;99.90;;;;;;5036401;28;20390;-71
2021/12/25 14:10:28;;;;;;;3.28;1.98;;;-1.00;99.90;;;;;;5020358;28;20550;-70